Waccabuc, NY (10597)

11:17 AM EST on December 08, 2016 (GMT -0500)
Waccabuc | | Change Station

Elev 618 ft 41.29 °N, 73.60 °W | Updated 32 seconds ago

Mostly Cloudy
Mostly Cloudy
37.1 °F
Feels Like 37 °F
N
1.0
Wind Variable Wind from SSW
Gusts 0.0 mph

Today
High -- | Low -- °F
--% Chance of Precip.
Yesterday
High -- | Low -- °F
Precip. -- in
Pressure 29.92 in
Visibility 10.0 miles
Clouds Few 9000 ft
Windchill 37 °F
Dew Point 32 °F
Humidity 81%
Rainfall 0.00 in
Snow Depth Not available.
7:07 AM 4:25 PM
Waxing Gibbous, 64% visible
METAR KDXR 081553Z 25008KT 10SM FEW090 03/M01 A2991 RMK AO2 SLP132 T00331011
Pressure 29.92 in
Visibility 10.0 miles
Clouds Few 9000 ft
Windchill 37 °F
Dew Point 32 °F
Humidity 81%
Rainfall 0.00 in
Snow Depth Not available.
7:07 AM 4:25 PM
Waxing Gibbous, 64% visible
METAR KDXR 081553Z 25008KT 10SM FEW090 03/M01 A2991 RMK AO2 SLP132 T00331011

10-Day Weather Forecast

Almanac

Astronomy

Dec. 08, 2016 Rise Set
Actual Time
Civil Twilight
Nautical Twilight
Astronomical Twilight
Moon
Length of Visible Light
Length of Day
Tomorrow will be .
, % of the Moon is Illuminated

Today's Extremes

State Highs State Lows

Community

WunderPhotos

Upload Photos

1,956,274 photos uploaded!

WunderBlog® & News

Nearby

Air Quality

  Air Quality AQ Index Pollutant
Not available.

Snow Depth

Station Depth Elevation

Earthquake Activity

City Distance Mag. Time & Date
Minimum magnitude displayed is 2.5.

Coastal Water Temperatures

Place Temperature

Stations

Nearby Weather Stations

Station Location Temp. Windchill Dew Point Humidity Wind Precip. Elev Updated Type
                   

Watches & Warnings

There are currently no watches in effect.